Time;durP1;ratioP1;P1;durP2;ratioP2;P2;SDS_P1;SDS_P2;PMS_P1;PMS_P2;Temp;Humidity;BMP_temperature;BMP_pressure;BME280_temperature;BME280_humidity;BME280_pressure;Samples;Min_cycle;Max_cycle;Signal;HPM_P1;HPM_P2
2023/01/01 00:01:55;;;;;;;133.63;117.00;;;14.70;99.90;;;;;;5096653;28;20457;-64
2023/01/01 00:04:23;;;;;;;134.33;118.50;;;14.70;99.90;;;;;;5095369;28;20777;-64
2023/01/01 00:06:50;;;;;;;123.27;108.10;;;14.60;99.90;;;;;;5095443;28;20445;-64
2023/01/01 00:12:00;;;;;;;167.10;128.50;;;14.60;99.90;;;;;;5095337;28;20505;-65
2023/01/01 00:14:27;;;;;;;157.97;130.40;;;14.50;99.90;;;;;;5095282;28;20437;-65
2023/01/01 00:16:55;;;;;;;148.07;127.00;;;14.50;99.90;;;;;;5095519;28;20457;-65
2023/01/01 00:19:23;;;;;;;153.10;122.63;;;14.40;99.90;;;;;;5096609;28;20456;-66
2023/01/01 00:21:50;;;;;;;131.93;111.90;;;14.30;99.90;;;;;;5103049;28;20548;-65
2023/01/01 00:24:17;;;;;;;128.63;105.03;;;14.30;99.90;;;;;;5103068;28;20446;-66
2023/01/01 00:26:44;;;;;;;109.47;92.97;;;14.30;99.90;;;;;;5102661;28;20449;-65
2023/01/01 00:29:12;;;;;;;97.00;80.50;;;14.30;99.90;;;;;;5103924;28;20453;-62
2023/01/01 00:31:38;;;;;;;82.03;69.53;;;14.30;99.90;;;;;;5103701;28;20445;-62
2023/01/01 00:34:06;;;;;;;74.80;58.70;;;14.30;99.90;;;;;;5102982;28;20457;-63
2023/01/01 00:36:34;;;;;;;71.10;55.47;;;14.40;99.90;;;;;;5103194;28;20477;-63
2023/01/01 00:39:03;;;;;;;54.03;48.20;;;14.40;99.90;;;;;;5103523;28;20453;-63
2023/01/01 00:41:31;;;;;;;47.57;42.53;;;14.50;99.90;;;;;;5103380;28;20452;-63
2023/01/01 00:43:58;;;;;;;39.60;33.67;;;14.60;99.90;;;;;;5103622;28;20476;-63
2023/01/01 00:46:26;;;;;;;33.90;29.40;;;14.60;99.90;;;;;;5103252;28;20453;-62
2023/01/01 00:48:53;;;;;;;29.03;25.00;;;14.70;99.90;;;;;;5099909;28;20455;-62
2023/01/01 00:51:19;;;;;;;27.77;23.93;;;14.70;99.90;;;;;;5094649;28;20469;-62
2023/01/01 00:53:47;;;;;;;24.37;19.70;;;14.70;99.90;;;;;;5094676;28;20503;-63
2023/01/01 00:56:14;;;;;;;22.50;19.30;;;14.80;99.90;;;;;;5094566;28;20474;-62
2023/01/01 00:58:41;;;;;;;20.07;17.70;;;14.80;99.90;;;;;;5094346;28;20947;-63
2023/01/01 01:01:07;;;;;;;20.70;18.40;;;14.90;99.90;;;;;;5095237;28;21144;-63
2023/01/01 01:03:34;;;;;;;19.03;16.17;;;14.90;99.90;;;;;;5094500;28;20453;-63
2023/01/01 01:06:10;;;;;;;16.63;14.20;;;14.90;99.90;;;;;;5097201;28;20936;-63
2023/01/01 01:08:39;;;;;;;14.47;13.07;;;14.90;99.90;;;;;;5097777;28;20528;-63
2023/01/01 01:11:09;;;;;;;14.67;12.80;;;15.00;99.90;;;;;;5094197;28;20971;-63
2023/01/01 01:13:36;;;;;;;12.67;11.47;;;15.00;99.90;;;;;;5094440;28;20449;-63
2023/01/01 01:16:08;;;;;;;13.97;12.10;;;15.10;99.90;;;;;;5093979;28;21012;-63
2023/01/01 01:18:35;;;;;;;12.30;10.80;;;15.10;99.90;;;;;;5094395;28;20904;-63
2023/01/01 01:21:01;;;;;;;12.53;11.23;;;15.20;99.90;;;;;;5094451;28;20885;-63
2023/01/01 01:23:28;;;;;;;14.83;12.13;;;15.20;99.90;;;;;;5094212;28;20453;-63
2023/01/01 01:25:55;;;;;;;12.30;10.87;;;15.30;99.90;;;;;;5094128;28;20494;-63
2023/01/01 01:28:23;;;;;;;11.83;10.73;;;15.30;99.90;;;;;;5093909;28;20511;-63
2023/01/01 01:30:49;;;;;;;12.17;11.07;;;15.30;99.90;;;;;;5094171;28;20475;-63
2023/01/01 01:33:16;;;;;;;11.33;10.00;;;15.30;99.90;;;;;;5093703;28;20457;-63
2023/01/01 01:35:42;;;;;;;10.63;9.53;;;15.20;99.90;;;;;;5093680;28;20473;-63
2023/01/01 01:38:10;;;;;;;10.20;9.20;;;15.20;99.90;;;;;;5093802;28;20506;-63
2023/01/01 01:40:41;;;;;;;10.00;9.10;;;15.20;99.90;;;;;;5093731;28;20522;-63
2023/01/01 01:43:12;;;;;;;10.43;9.33;;;15.20;99.90;;;;;;5093548;28;20491;-63
2023/01/01 01:45:40;;;;;;;11.50;8.93;;;15.30;99.90;;;;;;5093496;28;20931;-63
2023/01/01 01:48:10;;;;;;;9.90;9.00;;;15.20;99.90;;;;;;5093827;28;20472;-63
2023/01/01 01:50:39;;;;;;;11.90;10.70;;;15.20;99.90;;;;;;5093660;28;20500;-63
2023/01/01 01:53:11;;;;;;;11.47;10.27;;;15.20;99.90;;;;;;5093710;28;20507;-62
2023/01/01 01:55:43;;;;;;;11.43;10.17;;;15.10;99.90;;;;;;5095867;28;21020;-63
2023/01/01 01:58:12;;;;;;;15.70;13.13;;;15.10;99.90;;;;;;5097411;28;20463;-63
2023/01/01 02:00:40;;;;;;;15.93;14.23;;;15.10;99.90;;;;;;5097686;28;20469;-63
2023/01/01 02:03:09;;;;;;;18.43;16.50;;;15.00;99.90;;;;;;5097566;28;20457;-63
2023/01/01 02:05:37;;;;;;;21.40;18.90;;;15.00;99.90;;;;;;5097481;28;20449;-63
2023/01/01 02:08:05;;;;;;;24.00;20.20;;;15.00;99.90;;;;;;5097717;28;20502;-63
2023/01/01 02:10:32;;;;;;;23.13;20.70;;;14.90;99.90;;;;;;5097481;28;20785;-63
2023/01/01 02:12:59;;;;;;;22.00;19.73;;;14.90;99.90;;;;;;5097448;28;20506;-63
2023/01/01 02:15:34;;;;;;;23.60;20.67;;;14.80;99.90;;;;;;5097446;28;20605;-63
2023/01/01 02:18:06;;;;;;;21.80;19.57;;;14.80;99.90;;;;;;5097505;28;20490;-63
2023/01/01 02:20:40;;;;;;;24.60;20.33;;;14.80;99.90;;;;;;5097310;28;20469;-63
2023/01/01 02:23:22;;;;;;;20.23;17.80;;;14.80;99.90;;;;;;5097473;28;20436;-63
2023/01/01 02:26:00;;;;;;;24.97;18.30;;;14.80;99.90;;;;;;5097134;28;20498;-63
2023/01/01 02:28:44;;;;;;;20.53;17.60;;;14.80;99.90;;;;;;5097101;28;20502;-63
2023/01/01 02:31:14;;;;;;;16.37;14.67;;;14.70;99.90;;;;;;5097294;28;20563;-63
2023/01/01 02:33:44;;;;;;;18.07;14.80;;;14.70;99.90;;;;;;5096834;28;20471;-63
2023/01/01 02:36:12;;;;;;;16.23;13.97;;;14.70;99.90;;;;;;5096913;28;20477;-63
2023/01/01 02:38:41;;;;;;;17.60;15.77;;;14.80;99.90;;;;;;5096801;28;20437;-63
2023/01/01 02:41:10;;;;;;;23.57;21.17;;;14.80;99.90;;;;;;5096622;28;20469;-63
2023/01/01 02:43:40;;;;;;;26.30;23.60;;;14.80;99.90;;;;;;5096657;28;20449;-63
2023/01/01 02:46:07;;;;;;;27.80;24.83;;;14.80;99.90;;;;;;5097139;28;20445;-64
2023/01/01 02:48:38;;;;;;;27.73;24.03;;;14.90;99.90;;;;;;5097004;28;20507;-63
2023/01/01 02:51:14;;;;;;;30.03;26.23;;;14.90;99.90;;;;;;5096343;28;20994;-63
2023/01/01 02:53:46;;;;;;;30.80;27.47;;;14.90;99.90;;;;;;5096825;28;20462;-63
2023/01/01 02:56:23;;;;;;;32.77;27.80;;;14.90;99.90;;;;;;5096595;28;20461;-63
2023/01/01 03:01:48;;;;;;;24.43;21.83;;;14.70;99.90;;;;;;5055620;28;20449;-63
2023/01/01 03:04:25;;;;;;;23.30;19.57;;;14.60;99.90;;;;;;5096529;28;20430;-63
2023/01/01 03:07:00;;;;;;;23.37;20.17;;;14.50;99.90;;;;;;5096177;28;20892;-64
2023/01/01 03:09:37;;;;;;;22.53;19.23;;;14.50;99.90;;;;;;5096609;28;21026;-63
2023/01/01 03:12:12;;;;;;;19.40;16.87;;;14.50;99.90;;;;;;5096501;28;20437;-63
2023/01/01 03:14:47;;;;;;;20.03;17.87;;;14.40;99.90;;;;;;5096485;28;20462;-63
2023/01/01 03:17:26;;;;;;;20.63;18.47;;;14.40;99.90;;;;;;5096345;28;20460;-63
2023/01/01 03:19:55;;;;;;;19.93;16.23;;;14.40;99.90;;;;;;5096371;28;20469;-63
2023/01/01 03:22:26;;;;;;;18.47;16.50;;;14.40;99.90;;;;;;5096236;28;20507;-63
2023/01/01 03:24:58;;;;;;;20.57;15.60;;;14.40;99.90;;;;;;5096257;28;20487;-63
2023/01/01 03:27:29;;;;;;;18.30;15.43;;;14.40;99.90;;;;;;5096303;28;20434;-63
2023/01/01 03:30:02;;;;;;;16.13;13.77;;;14.40;99.90;;;;;;5096708;28;20473;-63
2023/01/01 03:35:17;;;;;;;15.83;14.13;;;14.50;99.90;;;;;;5095433;28;20437;-63
2023/01/01 03:37:48;;;;;;;16.13;14.40;;;14.50;99.90;;;;;;5096027;28;20482;-63
2023/01/01 03:40:17;;;;;;;14.23;12.60;;;14.40;99.90;;;;;;5095806;28;20476;-63
2023/01/01 03:42:49;;;;;;;13.93;12.40;;;14.40;99.90;;;;;;5095501;28;21071;-63
2023/01/01 03:45:22;;;;;;;13.20;11.27;;;14.50;99.90;;;;;;5095597;28;20901;-63
2023/01/01 03:47:49;;;;;;;14.80;10.43;;;14.50;99.90;;;;;;5095646;28;20965;-63
2023/01/01 03:50:16;;;;;;;11.37;10.20;;;14.60;99.90;;;;;;5095617;28;20477;-63
2023/01/01 03:52:50;;;;;;;9.30;8.40;;;14.60;99.90;;;;;;5095256;28;20862;-63
2023/01/01 03:55:23;;;;;;;8.07;7.03;;;14.60;99.90;;;;;;5095591;28;20433;-63
2023/01/01 03:57:58;;;;;;;8.00;7.13;;;14.60;99.90;;;;;;5095501;28;20480;-63
2023/01/01 04:00:31;;;;;;;10.07;6.80;;;14.70;99.90;;;;;;5095437;28;20472;-63
2023/01/01 04:03:01;;;;;;;6.00;5.40;;;14.70;99.90;;;;;;5095462;28;20438;-63
2023/01/01 04:05:29;;;;;;;7.00;5.33;;;14.70;99.90;;;;;;5095531;28;20441;-63
2023/01/01 04:07:57;;;;;;;5.93;5.30;;;14.80;99.90;;;;;;5095723;28;20506;-63
2023/01/01 04:10:25;;;;;;;6.00;5.10;;;14.80;99.90;;;;;;5095365;28;20526;-63
2023/01/01 04:12:53;;;;;;;7.10;5.00;;;14.80;99.90;;;;;;5095226;28;20450;-63
2023/01/01 04:15:23;;;;;;;5.40;5.00;;;14.80;99.90;;;;;;5095332;28;20453;-63
2023/01/01 04:17:51;;;;;;;6.47;5.17;;;14.90;99.90;;;;;;5094217;28;20483;-63
2023/01/01 04:20:18;;;;;;;5.33;4.83;;;14.80;99.90;;;;;;5095099;28;20473;-63
2023/01/01 04:22:46;;;;;;;4.67;4.27;;;14.90;99.90;;;;;;5095035;28;20526;-63
2023/01/01 04:25:13;;;;;;;4.70;4.20;;;14.90;99.90;;;;;;5094967;28;20456;-63
2023/01/01 04:27:40;;;;;;;5.10;4.50;;;14.90;99.90;;;;;;5094855;28;20502;-63
2023/01/01 04:30:09;;;;;;;5.03;4.37;;;14.90;99.90;;;;;;5094827;28;20522;-63
2023/01/01 04:32:36;;;;;;;7.70;4.47;;;14.90;99.90;;;;;;5094559;28;20449;-63
2023/01/01 04:35:05;;;;;;;4.30;3.90;;;14.90;99.90;;;;;;5095129;28;20464;-63
2023/01/01 04:37:34;;;;;;;6.57;3.87;;;14.90;99.90;;;;;;5095034;28;20526;-63
2023/01/01 04:40:01;;;;;;;4.30;3.90;;;14.90;99.90;;;;;;5094749;28;20465;-63
2023/01/01 04:42:28;;;;;;;4.40;3.97;;;14.90;99.90;;;;;;5094799;28;20453;-63
2023/01/01 04:44:54;;;;;;;5.60;4.10;;;14.90;99.90;;;;;;5094783;28;20453;-63
2023/01/01 04:47:21;;;;;;;4.90;3.43;;;14.90;99.90;;;;;;5094676;28;20445;-63
2023/01/01 04:49:48;;;;;;;4.67;4.00;;;14.90;99.90;;;;;;5094727;28;20471;-63
2023/01/01 04:52:16;;;;;;;4.17;3.77;;;14.90;99.90;;;;;;5095127;28;20437;-63
2023/01/01 04:54:43;;;;;;;4.60;4.20;;;14.90;99.90;;;;;;5094207;28;20795;-63
2023/01/01 04:57:09;;;;;;;6.93;3.70;;;15.00;99.90;;;;;;5094563;28;20469;-63
2023/01/01 04:59:36;;;;;;;4.30;3.90;;;15.00;99.90;;;;;;5094524;28;20522;-63
2023/01/01 05:02:03;;;;;;;4.77;3.40;;;15.00;99.90;;;;;;5094309;28;20445;-63
2023/01/01 05:04:29;;;;;;;3.97;3.67;;;15.00;99.90;;;;;;5094627;28;20445;-63
2023/01/01 05:06:56;;;;;;;4.30;3.90;;;14.90;99.90;;;;;;5094620;28;20475;-63
2023/01/01 05:09:24;;;;;;;4.10;3.80;;;14.90;99.90;;;;;;5094246;28;20449;-63
2023/01/01 05:11:51;;;;;;;6.33;3.87;;;14.90;99.90;;;;;;5094683;28;20795;-63
2023/01/01 05:14:17;;;;;;;4.00;3.60;;;14.90;99.90;;;;;;5094736;28;20521;-63
2023/01/01 05:16:44;;;;;;;4.30;3.40;;;14.90;99.90;;;;;;5094408;28;20473;-63
2023/01/01 05:19:10;;;;;;;4.40;3.73;;;14.90;99.90;;;;;;5094236;28;20450;-63
2023/01/01 05:21:39;;;;;;;4.43;4.03;;;14.90;99.90;;;;;;5094338;28;20822;-63
2023/01/01 05:24:07;;;;;;;4.80;4.27;;;14.90;99.90;;;;;;5094462;28;20488;-63
2023/01/01 05:26:37;;;;;;;5.90;3.50;;;14.90;99.90;;;;;;5094248;28;20475;-63
2023/01/01 05:29:05;;;;;;;4.57;3.80;;;14.80;99.90;;;;;;5094367;28;20448;-63
2023/01/01 05:31:33;;;;;;;4.57;3.87;;;14.90;99.90;;;;;;5094645;28;20471;-63
2023/01/01 05:34:01;;;;;;;4.47;3.60;;;14.90;99.90;;;;;;5094083;28;20541;-63
2023/01/01 05:36:29;;;;;;;3.63;3.30;;;14.90;99.90;;;;;;5094507;28;20885;-64
2023/01/01 05:38:57;;;;;;;4.57;3.27;;;14.90;99.90;;;;;;5094188;28;20986;-63
2023/01/01 05:41:24;;;;;;;3.97;2.80;;;14.90;99.90;;;;;;5094074;28;20538;-63
2023/01/01 05:43:52;;;;;;;4.03;2.83;;;14.80;99.90;;;;;;5095846;28;20456;-63
2023/01/01 05:46:21;;;;;;;3.93;3.47;;;14.80;99.90;;;;;;5097596;28;20453;-64
2023/01/01 05:48:48;;;;;;;2.87;2.67;;;14.80;99.90;;;;;;5096563;28;20449;-63
2023/01/01 05:51:17;;;;;;;2.93;2.77;;;14.80;99.90;;;;;;5095782;28;20975;-64
2023/01/01 05:53:44;;;;;;;3.80;3.00;;;14.80;99.90;;;;;;5094591;28;20455;-63
2023/01/01 05:56:12;;;;;;;4.07;3.50;;;14.90;99.90;;;;;;5093807;28;20856;-63
2023/01/01 05:58:39;;;;;;;3.60;3.40;;;14.90;99.90;;;;;;5093402;28;20932;-63
2023/01/01 06:01:09;;;;;;;3.50;3.30;;;14.90;99.90;;;;;;5093708;28;20477;-63
2023/01/01 06:03:36;;;;;;;3.10;2.83;;;14.90;99.90;;;;;;5093295;28;20908;-63
2023/01/01 06:06:06;;;;;;;3.37;3.07;;;14.90;99.90;;;;;;5093686;28;20449;-63
2023/01/01 06:08:33;;;;;;;5.23;3.37;;;14.90;99.90;;;;;;5093710;28;20453;-63
2023/01/01 06:11:01;;;;;;;4.07;3.47;;;14.90;99.90;;;;;;5094698;28;20531;-63
2023/01/01 06:13:28;;;;;;;3.73;3.43;;;14.80;99.90;;;;;;5093595;28;20507;-63
2023/01/01 06:15:55;;;;;;;3.50;3.13;;;14.80;99.90;;;;;;5093522;28;20453;-63
2023/01/01 06:18:24;;;;;;;4.17;3.30;;;14.80;99.90;;;;;;5093382;28;20523;-63
2023/01/01 06:20:51;;;;;;;4.67;3.30;;;14.70;99.90;;;;;;5093319;28;20468;-64
2023/01/01 06:23:18;;;;;;;3.70;3.30;;;14.70;99.90;;;;;;5093482;28;20526;-63
2023/01/01 06:25:44;;;;;;;6.57;3.73;;;14.70;99.90;;;;;;5093508;28;20498;-63
2023/01/01 06:28:11;;;;;;;5.13;4.00;;;14.70;99.90;;;;;;5093515;28;20449;-63
2023/01/01 06:30:38;;;;;;;5.03;3.50;;;14.60;99.90;;;;;;5093347;28;20500;-64
2023/01/01 06:33:05;;;;;;;3.97;3.67;;;14.60;99.90;;;;;;5093182;28;20465;-63
2023/01/01 06:35:33;;;;;;;5.03;3.17;;;14.60;99.90;;;;;;5093290;28;20456;-63
2023/01/01 06:38:00;;;;;;;4.90;4.30;;;14.60;99.90;;;;;;5093211;28;20480;-63
2023/01/01 06:40:26;;;;;;;3.90;3.60;;;14.50;99.90;;;;;;5093429;28;20477;-63
2023/01/01 06:42:53;;;;;;;4.50;3.63;;;14.50;99.90;;;;;;5096483;28;20453;-63
2023/01/01 06:45:20;;;;;;;4.20;3.67;;;14.50;99.90;;;;;;5096548;28;20823;-63
2023/01/01 06:47:46;;;;;;;4.43;4.03;;;14.40;99.90;;;;;;5096613;28;20919;-63
2023/01/01 06:50:13;;;;;;;5.57;4.37;;;14.40;99.90;;;;;;5096703;28;20469;-63
2023/01/01 06:52:41;;;;;;;4.63;4.10;;;14.30;99.90;;;;;;5096857;28;20449;-63
2023/01/01 06:55:08;;;;;;;3.97;3.70;;;14.20;99.90;;;;;;5096652;28;20449;-63
2023/01/01 06:57:35;;;;;;;4.20;3.70;;;14.20;99.90;;;;;;5096856;28;20469;-64
2023/01/01 07:00:01;;;;;;;4.23;3.83;;;14.20;99.90;;;;;;5096673;28;20881;-63
2023/01/01 07:02:28;;;;;;;4.10;3.53;;;14.20;99.90;;;;;;5096869;28;20852;-63
2023/01/01 07:04:55;;;;;;;3.77;3.53;;;14.20;99.90;;;;;;5096284;28;20926;-63
2023/01/01 07:07:21;;;;;;;4.70;3.50;;;14.10;99.90;;;;;;5096580;28;20457;-63
2023/01/01 07:09:49;;;;;;;3.67;3.37;;;14.10;99.90;;;;;;5096276;28;20530;-63
2023/01/01 07:12:16;;;;;;;3.70;3.27;;;14.20;99.90;;;;;;5096287;28;20502;-63
2023/01/01 07:14:43;;;;;;;3.80;3.50;;;14.20;99.90;;;;;;5096499;28;20506;-62
2023/01/01 07:17:09;;;;;;;4.67;4.17;;;14.20;99.90;;;;;;5096332;28;20502;-62
2023/01/01 07:19:36;;;;;;;3.50;3.20;;;14.20;99.90;;;;;;5096401;28;20469;-62
2023/01/01 07:22:02;;;;;;;3.87;3.57;;;14.20;99.90;;;;;;5096216;28;20453;-63
2023/01/01 07:24:29;;;;;;;4.83;4.20;;;14.30;99.90;;;;;;5096031;28;20502;-63
2023/01/01 07:26:57;;;;;;;6.10;3.60;;;14.40;99.90;;;;;;5096348;28;20461;-62
2023/01/01 07:29:24;;;;;;;4.50;4.07;;;14.40;99.90;;;;;;5096135;28;20457;-62
2023/01/01 07:31:50;;;;;;;4.33;3.90;;;14.40;99.90;;;;;;5096207;28;20488;-62
2023/01/01 07:34:18;;;;;;;5.07;3.10;;;14.50;99.90;;;;;;5095791;28;21010;-62
2023/01/01 07:36:45;;;;;;;4.30;3.90;;;14.40;99.90;;;;;;5097005;28;20457;-62
2023/01/01 07:39:12;;;;;;;3.63;3.40;;;14.50;99.90;;;;;;5096470;28;20457;-62
2023/01/01 07:41:38;;;;;;;6.23;3.70;;;14.50;99.90;;;;;;5096108;28;20491;-62
2023/01/01 07:44:07;;;;;;;5.33;3.20;;;14.60;99.90;;;;;;5096017;28;20449;-62
2023/01/01 07:46:35;;;;;;;6.03;3.67;;;14.70;99.90;;;;;;5096158;28;20453;-62
2023/01/01 07:49:02;;;;;;;4.20;3.23;;;14.70;99.90;;;;;;5096181;28;20453;-62
2023/01/01 07:51:29;;;;;;;3.23;3.03;;;14.80;99.90;;;;;;5096381;28;20499;-62
2023/01/01 07:53:56;;;;;;;4.23;3.60;;;14.90;99.90;;;;;;5096092;28;20794;-63
2023/01/01 07:56:22;;;;;;;3.57;3.37;;;14.90;99.90;;;;;;5095789;28;20453;-63
2023/01/01 07:58:49;;;;;;;3.90;3.47;;;15.00;99.90;;;;;;5107670;28;20469;-63
2023/01/01 08:01:17;;;;;;;6.73;4.37;;;15.00;99.90;;;;;;5115198;28;20465;-63
2023/01/01 08:03:44;;;;;;;4.60;4.27;;;15.20;99.90;;;;;;5116800;28;20449;-63
2023/01/01 08:06:13;;;;;;;3.57;3.17;;;15.40;99.90;;;;;;5098132;28;20457;-63
2023/01/01 08:08:40;;;;;;;4.63;3.50;;;15.70;99.90;;;;;;5097059;28;20503;-63
2023/01/01 08:11:07;;;;;;;4.70;4.30;;;15.90;99.90;;;;;;5096355;28;20530;-63
2023/01/01 08:13:34;;;;;;;4.70;3.87;;;15.80;99.90;;;;;;5095677;28;20453;-63
2023/01/01 08:16:01;;;;;;;4.20;3.70;;;15.80;99.90;;;;;;5095488;28;20449;-63
2023/01/01 08:18:29;;;;;;;5.60;4.47;;;15.70;99.90;;;;;;5094917;28;20469;-63
2023/01/01 08:20:56;;;;;;;4.80;3.67;;;15.60;99.90;;;;;;5094942;28;20469;-63
2023/01/01 08:23:22;;;;;;;3.97;3.57;;;15.50;99.90;;;;;;5095431;28;20552;-63
2023/01/01 08:25:49;;;;;;;4.73;4.43;;;15.40;99.90;;;;;;5096380;28;20794;-63
2023/01/01 08:28:16;;;;;;;3.57;2.93;;;15.50;99.90;;;;;;5095039;28;20855;-63
2023/01/01 18:21:20;;;;;;;7.30;6.27;;;12.30;99.90;;;;;;5092408;27;21079;-63
2023/01/01 18:23:48;;;;;;;11.90;6.60;;;12.40;99.90;;;;;;5092191;28;20487;-62
2023/01/01 18:26:15;;;;;;;10.83;5.30;;;12.60;99.90;;;;;;5092002;28;20495;-61
2023/01/01 18:28:42;;;;;;;7.90;5.40;;;12.90;99.90;;;;;;5092850;28;20446;-62
2023/01/01 18:31:11;;;;;;;8.40;5.17;;;13.30;99.90;;;;;;5091770;28;20472;-63
2023/01/01 18:33:38;;;;;;;8.50;6.03;;;13.50;99.90;;;;;;5092107;28;20453;-63
2023/01/01 18:36:07;;;;;;;5.20;4.63;;;13.70;99.90;;;;;;5092019;28;20545;-62
2023/01/01 18:38:36;;;;;;;6.37;5.77;;;13.90;99.90;;;;;;5091801;28;20940;-62
2023/01/01 18:41:22;;;;;;;9.70;7.10;;;14.00;99.90;;;;;;5091628;28;20481;-63
2023/01/01 18:43:49;;;;;;;7.53;6.60;;;14.10;99.90;;;;;;5092075;28;20923;-63
2023/01/01 18:46:16;;;;;;;8.53;7.57;;;14.20;99.90;;;;;;5092755;28;20928;-62
2023/01/01 18:48:42;;;;;;;11.27;7.53;;;14.30;99.90;;;;;;5091899;28;20506;-62
2023/01/01 18:51:14;;;;;;;10.33;7.30;;;14.30;99.90;;;;;;5091278;28;20469;-62
2023/01/01 18:53:42;;;;;;;8.57;7.03;;;14.30;99.90;;;;;;5091598;28;20441;-62
2023/01/01 18:56:12;;;;;;;8.03;6.50;;;14.30;99.90;;;;;;5091306;28;20450;-62
2023/01/01 18:58:40;;;;;;;7.10;5.63;;;14.30;99.90;;;;;;5091663;28;20851;-62
2023/01/01 19:01:14;;;;;;;9.00;6.90;;;14.40;99.90;;;;;;5091035;28;20992;-64
2023/01/01 19:03:41;;;;;;;8.40;6.20;;;14.30;99.90;;;;;;5090560;28;20445;-62
2023/01/01 19:06:20;;;;;;;8.13;6.17;;;14.30;99.90;;;;;;5090761;28;20453;-63
2023/01/01 19:08:49;;;;;;;10.07;6.47;;;14.20;99.90;;;;;;5091028;28;20845;-63
2023/01/01 19:11:20;;;;;;;8.93;6.97;;;14.10;99.90;;;;;;5090738;28;20470;-61
2023/01/01 19:13:48;;;;;;;9.67;6.80;;;14.10;99.90;;;;;;5090352;28;20983;-63
2023/01/01 19:16:22;;;;;;;7.00;6.30;;;13.90;99.90;;;;;;5091108;28;20507;-62
2023/01/01 19:18:49;;;;;;;7.57;6.70;;;13.80;99.90;;;;;;5090205;28;20487;-65
2023/01/01 19:21:21;;;;;;;7.50;6.70;;;13.80;99.90;;;;;;5090110;28;20972;-66
2023/01/01 19:23:50;;;;;;;9.23;6.73;;;13.70;99.90;;;;;;5090743;28;20434;-66
2023/01/01 19:26:23;;;;;;;10.23;7.40;;;13.70;99.90;;;;;;5090382;28;20452;-65
2023/01/01 19:28:53;;;;;;;8.47;7.63;;;13.70;99.90;;;;;;5090874;28;20437;-66
2023/01/01 19:31:20;;;;;;;8.97;6.60;;;13.60;99.90;;;;;;5083876;28;20458;-66
2023/01/01 19:33:47;;;;;;;8.00;6.33;;;13.50;99.90;;;;;;5076779;28;20852;-65
2023/01/01 19:36:13;;;;;;;9.93;6.30;;;13.40;99.90;;;;;;5076463;28;20454;-65
2023/01/01 19:38:40;;;;;;;8.30;6.43;;;13.40;99.90;;;;;;5077025;28;20450;-65
2023/01/01 19:41:08;;;;;;;8.47;6.00;;;13.40;99.90;;;;;;5076594;28;20478;-65
2023/01/01 19:43:35;;;;;;;9.30;5.77;;;13.40;99.90;;;;;;5076727;28;20458;-66
2023/01/01 19:46:02;;;;;;;6.20;5.60;;;13.40;99.90;;;;;;5076575;28;20454;-65
2023/01/01 19:48:28;;;;;;;5.93;5.37;;;13.50;99.90;;;;;;5076401;28;20446;-67
2023/01/01 19:50:56;;;;;;;7.40;4.93;;;13.50;99.90;;;;;;5077102;28;20462;-65
2023/01/01 19:53:22;;;;;;;6.33;5.10;;;13.60;99.90;;;;;;5077086;28;20867;-64
2023/01/01 19:55:49;;;;;;;7.53;4.53;;;13.70;99.90;;;;;;5076701;28;20458;-63
2023/01/01 19:58:18;;;;;;;7.23;4.40;;;13.70;99.90;;;;;;5079093;28;20458;-66
2023/01/01 20:00:45;;;;;;;4.67;3.67;;;13.80;99.90;;;;;;5081530;28;21051;-65
2023/01/01 20:03:12;;;;;;;6.83;4.17;;;13.80;99.90;;;;;;5080604;28;20897;-63
2023/01/01 20:05:38;;;;;;;5.27;4.13;;;13.80;99.90;;;;;;5077599;28;20872;-64
2023/01/01 20:08:05;;;;;;;4.60;4.20;;;13.90;99.90;;;;;;5076315;28;20901;-64
2023/01/01 20:10:32;;;;;;;5.53;3.97;;;13.90;99.90;;;;;;5075945;28;20972;-65
2023/01/01 20:12:58;;;;;;;7.33;4.30;;;14.00;99.90;;;;;;5076550;28;20523;-64
2023/01/01 20:15:26;;;;;;;4.87;4.47;;;14.10;99.90;;;;;;5076690;28;20453;-65
2023/01/01 20:17:53;;;;;;;7.20;4.73;;;14.20;99.90;;;;;;5076105;28;20937;-63
2023/01/01 20:20:20;;;;;;;4.20;3.80;;;14.20;99.90;;;;;;5076101;28;20482;-64
2023/01/01 20:22:46;;;;;;;5.60;4.00;;;14.20;99.90;;;;;;5076227;28;20557;-67
2023/01/01 20:25:13;;;;;;;8.07;4.03;;;14.30;99.90;;;;;;5075870;28;20515;-65
2023/01/01 20:29:17;;;;;;;4.43;4.00;;;14.30;99.90;;;;;;5075855;28;20442;-66
2023/01/01 20:30:28;;;;;;;4.53;4.13;;;14.30;99.90;;;;;;5075222;28;20983;-65
2023/01/01 20:32:54;;;;;;;3.53;3.23;;;14.20;99.90;;;;;;5076675;28;20451;-65
2023/01/01 20:38:02;;;;;;;4.70;3.70;;;14.10;99.90;;;;;;5075028;28;20430;-65
2023/01/01 20:40:28;;;;;;;4.33;3.50;;;14.00;99.90;;;;;;5075140;28;20478;-65
2023/01/01 20:42:55;;;;;;;3.33;3.13;;;14.10;99.90;;;;;;5075184;28;20446;-65
2023/01/01 20:45:22;;;;;;;6.20;3.07;;;14.10;99.90;;;;;;5075205;28;20454;-65
2023/01/01 20:47:49;;;;;;;3.63;3.33;;;14.10;99.90;;;;;;5075008;28;20942;-65
2023/01/01 20:50:16;;;;;;;3.80;3.50;;;14.20;99.90;;;;;;5074722;28;20470;-65
2023/01/01 20:52:43;;;;;;;4.13;3.70;;;14.30;99.90;;;;;;5075544;28;20446;-65
2023/01/01 20:55:10;;;;;;;4.27;3.07;;;14.40;99.90;;;;;;5075048;28;20439;-65
2023/01/01 20:57:36;;;;;;;7.63;3.23;;;14.50;99.90;;;;;;5075172;28;20450;-65
2023/01/01 21:00:05;;;;;;;4.20;3.80;;;14.50;99.90;;;;;;5074627;28;20976;-66
2023/01/01 21:02:32;;;;;;;3.83;3.40;;;14.60;99.90;;;;;;5075133;28;20479;-65
2023/01/01 21:05:00;;;;;;;4.40;4.10;;;14.60;99.90;;;;;;5074864;28;20454;-65
2023/01/01 21:07:27;;;;;;;3.37;3.17;;;14.60;99.90;;;;;;5074889;28;20449;-61
2023/01/01 21:09:53;;;;;;;6.50;4.37;;;14.70;99.90;;;;;;5074561;28;20519;-62
2023/01/01 21:12:20;;;;;;;5.43;4.90;;;14.70;99.90;;;;;;5074770;28;20529;-61
2023/01/01 21:14:47;;;;;;;6.03;4.67;;;14.70;99.90;;;;;;5074405;28;20458;-62
2023/01/01 21:17:20;;;;;;;5.23;4.73;;;14.60;99.90;;;;;;5074612;28;20466;-61
2023/01/01 21:19:47;;;;;;;4.50;3.83;;;14.60;99.90;;;;;;5074247;28;20573;-61
2023/01/01 21:22:16;;;;;;;4.57;4.10;;;14.60;99.90;;;;;;5075317;28;20461;-61
2023/01/01 21:24:43;;;;;;;4.57;4.17;;;14.60;99.90;;;;;;5075619;28;20454;-61
2023/01/01 21:27:13;;;;;;;3.80;3.50;;;14.60;99.90;;;;;;5077595;28;20434;-61
2023/01/01 21:29:43;;;;;;;7.10;3.90;;;14.60;99.90;;;;;;5079286;28;20438;-61
2023/01/01 21:32:18;;;;;;;3.00;2.80;;;14.70;99.90;;;;;;5078578;28;20430;-61
2023/01/01 21:34:47;;;;;;;5.70;3.10;;;14.70;99.90;;;;;;5078702;28;20449;-61
2023/01/01 21:40:29;;;;;;;4.27;3.80;;;14.70;99.90;;;;;;5079229;28;20524;-65
2023/01/01 21:43:06;;;;;;;4.30;4.00;;;14.60;99.90;;;;;;5080165;28;20449;-65
2023/01/01 21:45:36;;;;;;;4.00;3.60;;;14.50;99.90;;;;;;5080086;28;20442;-66
2023/01/01 21:48:11;;;;;;;3.70;3.20;;;14.50;99.90;;;;;;5079254;28;20452;-65
2023/01/01 21:50:40;;;;;;;5.30;3.50;;;14.40;99.90;;;;;;5078964;28;20465;-67
2023/01/01 21:53:15;;;;;;;4.30;3.07;;;14.40;99.90;;;;;;5079278;28;20487;-65
2023/01/01 21:55:54;;;;;;;3.50;3.30;;;14.40;99.90;;;;;;5078584;28;20430;-65
2023/01/01 22:01:19;;;;;;;4.07;3.40;;;14.40;99.90;;;;;;5077314;28;20523;-65
2023/01/01 22:03:49;;;;;;;3.53;2.73;;;14.40;99.90;;;;;;5079137;28;20472;-66
2023/01/01 22:06:16;;;;;;;3.50;3.20;;;14.40;99.90;;;;;;5079861;28;20465;-66
2023/01/01 22:08:46;;;;;;;3.60;3.30;;;14.50;99.90;;;;;;5079590;28;20461;-66
2023/01/01 22:11:23;;;;;;;3.57;3.27;;;14.50;99.90;;;;;;5078869;28;20844;-62
2023/01/01 22:13:51;;;;;;;4.87;3.20;;;14.40;99.90;;;;;;5080083;28;20442;-65
2023/01/01 22:16:20;;;;;;;3.67;3.20;;;14.40;99.90;;;;;;5079315;28;20941;-66
2023/01/01 22:18:47;;;;;;;3.67;3.10;;;14.40;99.90;;;;;;5078541;28;20435;-61
2023/01/01 22:21:17;;;;;;;3.20;2.93;;;14.40;99.90;;;;;;5078833;28;20481;-65
2023/01/01 22:23:46;;;;;;;3.50;3.20;;;14.40;99.90;;;;;;5078829;28;20434;-62
2023/01/01 22:26:22;;;;;;;5.60;2.90;;;14.40;99.90;;;;;;5079089;28;21002;-61
2023/01/01 22:28:51;;;;;;;2.70;2.50;;;14.40;99.90;;;;;;5075450;28;20469;-62
2023/01/01 22:31:22;;;;;;;3.03;2.80;;;14.50;99.90;;;;;;5076745;28;20470;-62
2023/01/01 22:33:51;;;;;;;2.87;2.67;;;14.60;99.90;;;;;;5078708;28;20458;-62
2023/01/01 22:36:21;;;;;;;2.53;2.33;;;14.60;99.90;;;;;;5078133;28;20439;-63
